sensor_id;sensor_type;location;lat;lon;timestamp;P1;P2;P0
82823;PMS5003;72575;46.834;-71.234;2024-02-26T00:00:16;57.44;48.83;27.83
82823;PMS5003;72575;46.834;-71.234;2024-02-26T00:02:40;63.2;50.05;29.45
82823;PMS5003;72575;46.834;-71.234;2024-02-26T00:05:06;71.25;55.8;31.55
82823;PMS5003;72575;46.834;-71.234;2024-02-26T00:07:31;59.16;47.84;28.21
82823;PMS5003;72575;46.834;-71.234;2024-02-26T00:09:57;66.75;53.85;29.1
82823;PMS5003;72575;46.834;-71.234;2024-02-26T00:12:21;69.61;53.56;32.89
82823;PMS5003;72575;46.834;-71.234;2024-02-26T00:14:47;66.78;53.67;32.28
82823;PMS5003;72575;46.834;-71.234;2024-02-26T00:17:14;73.71;58.43;33.05
82823;PMS5003;72575;46.834;-71.234;2024-02-26T00:19:40;64.17;52.28;29.89
82823;PMS5003;72575;46.834;-71.234;2024-02-26T00:22:03;58.43;46;25.48
82823;PMS5003;72575;46.834;-71.234;2024-02-26T00:24:29;66.45;52;30.55
82823;PMS5003;72575;46.834;-71.234;2024-02-26T00:26:56;66.42;53.37;28.47
82823;PMS5003;72575;46.834;-71.234;2024-02-26T00:29:21;61.42;49.16;27.84
82823;PMS5003;72575;46.834;-71.234;2024-02-26T00:31:48;65.65;51.4;29.1
82823;PMS5003;72575;46.834;-71.234;2024-02-26T00:34:10;66.95;53.26;29.47
82823;PMS5003;72575;46.834;-71.234;2024-02-26T00:36:37;53.81;44.86;27.1
82823;PMS5003;72575;46.834;-71.234;2024-02-26T00:39:03;58.47;48.58;28.16
82823;PMS5003;72575;46.834;-71.234;2024-02-26T00:41:27;47.37;42.68;25.68
82823;PMS5003;72575;46.834;-71.234;2024-02-26T00:43:53;63.47;50.58;28.68
82823;PMS5003;72575;46.834;-71.234;2024-02-26T00:46:19;55.57;46.1;27.95
82823;PMS5003;72575;46.834;-71.234;2024-02-26T00:48:45;60.05;47.21;25.68
82823;PMS5003;72575;46.834;-71.234;2024-02-26T00:51:08;54.76;46.52;28.19
82823;PMS5003;72575;46.834;-71.234;2024-02-26T00:53:33;59.89;49.72;28.89
82823;PMS5003;72575;46.834;-71.234;2024-02-26T00:55:59;52.19;43.95;25.76
82823;PMS5003;72575;46.834;-71.234;2024-02-26T00:58:25;57.6;46.95;28.6
82823;PMS5003;72575;46.834;-71.234;2024-02-26T01:00:50;72.4;58.85;34.05
82823;PMS5003;72575;46.834;-71.234;2024-02-26T01:03:18;50.3;43.35;28.55
82823;PMS5003;72575;46.834;-71.234;2024-02-26T01:05:42;50.76;42.81;27.76
82823;PMS5003;72575;46.834;-71.234;2024-02-26T01:08:06;58.84;46.58;28.05
82823;PMS5003;72575;46.834;-71.234;2024-02-26T01:10:33;52.48;42.67;24.76
82823;PMS5003;72575;46.834;-71.234;2024-02-26T01:12:57;50.15;45.2;27.7
82823;PMS5003;72575;46.834;-71.234;2024-02-26T01:15:23;51.05;46.21;29
82823;PMS5003;72575;46.834;-71.234;2024-02-26T01:17:49;49.77;44.86;30.09
82823;PMS5003;72575;46.834;-71.234;2024-02-26T01:20:15;47.05;41.14;24.71
82823;PMS5003;72575;46.834;-71.234;2024-02-26T01:22:39;55.05;45.2;27.3
82823;PMS5003;72575;46.834;-71.234;2024-02-26T01:25:06;49.85;45.15;25.95
82823;PMS5003;72575;46.834;-71.234;2024-02-26T01:27:30;48.24;40.67;25.24
82823;PMS5003;72575;46.834;-71.234;2024-02-26T01:29:56;50.37;42.63;26.47
82823;PMS5003;72575;46.834;-71.234;2024-02-26T01:32:28;51.43;41.43;24.76
82823;PMS5003;72575;46.834;-71.234;2024-02-26T01:34:53;53.95;46.32;28.91
82823;PMS5003;72575;46.834;-71.234;2024-02-26T01:37:18;65.84;49.58;28.11
82823;PMS5003;72575;46.834;-71.234;2024-02-26T01:39:45;57.05;46.1;27.1
82823;PMS5003;72575;46.834;-71.234;2024-02-26T01:42:10;46.76;39.76;26.67
82823;PMS5003;72575;46.834;-71.234;2024-02-26T01:44:36;58;47.7;27.75
82823;PMS5003;72575;46.834;-71.234;2024-02-26T01:46:59;55.67;47.19;29.19
82823;PMS5003;72575;46.834;-71.234;2024-02-26T01:49:26;52.9;45.4;26.3
82823;PMS5003;72575;46.834;-71.234;2024-02-26T01:51:50;62.26;49.58;29.37
82823;PMS5003;72575;46.834;-71.234;2024-02-26T01:54:16;63.3;51.1;28
82823;PMS5003;72575;46.834;-71.234;2024-02-26T01:56:41;62.67;50.61;27.72
82823;PMS5003;72575;46.834;-71.234;2024-02-26T01:59:08;52.75;45.5;27.9
82823;PMS5003;72575;46.834;-71.234;2024-02-26T02:01:31;64.79;52;29.26
82823;PMS5003;72575;46.834;-71.234;2024-02-26T02:03:59;67.5;56.78;31.78
82823;PMS5003;72575;46.834;-71.234;2024-02-26T02:06:26;59.32;48.32;31.82
82823;PMS5003;72575;46.834;-71.234;2024-02-26T02:08:49;75.5;60.8;36.1
82823;PMS5003;72575;46.834;-71.234;2024-02-26T02:11:15;70;57.79;32.32
82823;PMS5003;72575;46.834;-71.234;2024-02-26T02:13:39;64.47;51.42;30.37
82823;PMS5003;72575;46.834;-71.234;2024-02-26T02:16:06;56.53;47.53;28.21
82823;PMS5003;72575;46.834;-71.234;2024-02-26T02:18:31;62.72;50.61;31.11
82823;PMS5003;72575;46.834;-71.234;2024-02-26T02:20:57;72.58;58.05;33.74
82823;PMS5003;72575;46.834;-71.234;2024-02-26T02:23:22;68.67;56;33.29
82823;PMS5003;72575;46.834;-71.234;2024-02-26T02:25:48;63.43;52.76;31.57
82823;PMS5003;72575;46.834;-71.234;2024-02-26T02:28:11;62.42;51.58;31.74
82823;PMS5003;72575;46.834;-71.234;2024-02-26T02:30:37;66.85;47.65;30.05
82823;PMS5003;72575;46.834;-71.234;2024-02-26T02:33:04;69.61;55.06;32
82823;PMS5003;72575;46.834;-71.234;2024-02-26T02:35:27;62.15;49.65;29.75
82823;PMS5003;72575;46.834;-71.234;2024-02-26T02:37:55;78.05;59.63;32.16
82823;PMS5003;72575;46.834;-71.234;2024-02-26T02:40:21;79.05;59.1;31.67
82823;PMS5003;72575;46.834;-71.234;2024-02-26T02:42:44;65.5;50.45;31.9
82823;PMS5003;72575;46.834;-71.234;2024-02-26T02:45:11;67.11;53.11;29.63
82823;PMS5003;72575;46.834;-71.234;2024-02-26T02:47:37;59;46.75;25.85
82823;PMS5003;72575;46.834;-71.234;2024-02-26T02:50:00;65.1;54.43;32.19
82823;PMS5003;72575;46.834;-71.234;2024-02-26T02:52:28;65.45;54.35;30.5
82823;PMS5003;72575;46.834;-71.234;2024-02-26T02:54:51;54.52;45.52;26.62
82823;PMS5003;72575;46.834;-71.234;2024-02-26T02:57:18;54.95;46.8;28.45
82823;PMS5003;72575;46.834;-71.234;2024-02-26T02:59:44;58.47;50.16;29.95
82823;PMS5003;72575;46.834;-71.234;2024-02-26T03:02:07;47.86;43.1;27.24
82823;PMS5003;72575;46.834;-71.234;2024-02-26T03:04:34;71.32;54.21;32.74
82823;PMS5003;72575;46.834;-71.234;2024-02-26T03:07:00;56.05;46.5;28.4
82823;PMS5003;72575;46.834;-71.234;2024-02-26T03:09:23;51.14;44.33;27.95
82823;PMS5003;72575;46.834;-71.234;2024-02-26T03:11:50;53.53;44.89;25.47
82823;PMS5003;72575;46.834;-71.234;2024-02-26T03:14:16;55.05;48.35;26
82823;PMS5003;72575;46.834;-71.234;2024-02-26T03:16:42;57.32;47.84;27.89
82823;PMS5003;72575;46.834;-71.234;2024-02-26T03:19:07;41.05;38.79;24.58
82823;PMS5003;72575;46.834;-71.234;2024-02-26T03:21:30;37.14;34.95;22.19
82823;PMS5003;72575;46.834;-71.234;2024-02-26T03:23:57;46.55;40.7;23.65
82823;PMS5003;72575;46.834;-71.234;2024-02-26T03:26:21;49.38;41.95;25.57
82823;PMS5003;72575;46.834;-71.234;2024-02-26T03:28:48;48.67;41;24.19
82823;PMS5003;72575;46.834;-71.234;2024-02-26T03:31:12;48.71;44.29;24.33
82823;PMS5003;72575;46.834;-71.234;2024-02-26T03:33:38;48.47;41.84;24.89
82823;PMS5003;72575;46.834;-71.234;2024-02-26T03:36:05;50.84;45.37;25.84
82823;PMS5003;72575;46.834;-71.234;2024-02-26T03:38:29;53.4;46.6;26.1
82823;PMS5003;72575;46.834;-71.234;2024-02-26T03:40:56;55.6;47.1;26.6
82823;PMS5003;72575;46.834;-71.234;2024-02-26T03:43:19;42.75;39.65;25.9
82823;PMS5003;72575;46.834;-71.234;2024-02-26T03:45:45;51.1;43.65;27.75
82823;PMS5003;72575;46.834;-71.234;2024-02-26T03:48:12;50.45;44;27.14
82823;PMS5003;72575;46.834;-71.234;2024-02-26T03:50:35;57.05;46.75;24.5
82823;PMS5003;72575;46.834;-71.234;2024-02-26T03:53:01;46.71;41.76;24.62
82823;PMS5003;72575;46.834;-71.234;2024-02-26T03:55:28;52.47;45;25.16
82823;PMS5003;72575;46.834;-71.234;2024-02-26T03:57:51;53.86;44.38;26.86
82823;PMS5003;72575;46.834;-71.234;2024-02-26T04:00:19;53.53;46.42;28.16
82823;PMS5003;72575;46.834;-71.234;2024-02-26T04:02:43;50.74;44.42;26.89
82823;PMS5003;72575;46.834;-71.234;2024-02-26T04:05:10;50.8;44.85;25.35
82823;PMS5003;72575;46.834;-71.234;2024-02-26T04:07:35;49.29;44.52;26.19
82823;PMS5003;72575;46.834;-71.234;2024-02-26T04:10:00;57.26;47.47;29.79
82823;PMS5003;72575;46.834;-71.234;2024-02-26T04:12:26;61.95;51.1;29.25
82823;PMS5003;72575;46.834;-71.234;2024-02-26T04:14:52;57.74;47.37;27.53
82823;PMS5003;72575;46.834;-71.234;2024-02-26T04:17:16;59.45;48.95;27.3
82823;PMS5003;72575;46.834;-71.234;2024-02-26T04:19:40;54.65;47.85;26.9
82823;PMS5003;72575;46.834;-71.234;2024-02-26T04:22:07;50.86;46.57;28.24
82823;PMS5003;72575;46.834;-71.234;2024-02-26T04:24:31;58.65;48.55;29.4
82823;PMS5003;72575;46.834;-71.234;2024-02-26T04:26:57;57.5;48.35;29.8
82823;PMS5003;72575;46.834;-71.234;2024-02-26T04:29:28;60;50.45;28.55
82823;PMS5003;72575;46.834;-71.234;2024-02-26T04:31:52;62.43;50.24;31.38
82823;PMS5003;72575;46.834;-71.234;2024-02-26T04:34:16;64.58;53.21;31.32
82823;PMS5003;72575;46.834;-71.234;2024-02-26T04:36:42;67.84;55.05;33.47
82823;PMS5003;72575;46.834;-71.234;2024-02-26T04:39:09;62.09;47.77;29.32
82823;PMS5003;72575;46.834;-71.234;2024-02-26T04:41:33;61.05;49.67;28.76
82823;PMS5003;72575;46.834;-71.234;2024-02-26T04:43:59;64.11;53.5;30.39
82823;PMS5003;72575;46.834;-71.234;2024-02-26T04:46:23;58.9;49.55;29.9
82823;PMS5003;72575;46.834;-71.234;2024-02-26T04:48:50;62;49.2;28.35
82823;PMS5003;72575;46.834;-71.234;2024-02-26T04:51:16;64.37;54.05;30.32
82823;PMS5003;72575;46.834;-71.234;2024-02-26T04:53:39;63.16;50.79;29.95
82823;PMS5003;72575;46.834;-71.234;2024-02-26T04:56:05;50.59;44.23;28.36
82823;PMS5003;72575;46.834;-71.234;2024-02-26T04:58:31;58.58;48;27.37
82823;PMS5003;72575;46.834;-71.234;2024-02-26T05:00:57;60.9;49.95;28.6
82823;PMS5003;72575;46.834;-71.234;2024-02-26T05:03:22;64.89;52.06;29.89
82823;PMS5003;72575;46.834;-71.234;2024-02-26T05:05:48;59.1;51.3;30.25
82823;PMS5003;72575;46.834;-71.234;2024-02-26T05:08:14;61.05;50.63;29.79
82823;PMS5003;72575;46.834;-71.234;2024-02-26T05:10:40;54.71;46.29;28.81
82823;PMS5003;72575;46.834;-71.234;2024-02-26T05:13:03;55.71;47.9;29.1
82823;PMS5003;72575;46.834;-71.234;2024-02-26T05:15:27;66.42;53.53;29.63
82823;PMS5003;72575;46.834;-71.234;2024-02-26T05:17:54;58.43;47.95;29.9
82823;PMS5003;72575;46.834;-71.234;2024-02-26T05:20:20;52.85;44.4;26.3
82823;PMS5003;72575;46.834;-71.234;2024-02-26T05:22:44;54.79;46.32;27.42
82823;PMS5003;72575;46.834;-71.234;2024-02-26T05:25:11;45.9;40.24;25.38
82823;PMS5003;72575;46.834;-71.234;2024-02-26T05:27:35;47.05;42.3;22.75
82823;PMS5003;72575;46.834;-71.234;2024-02-26T05:30:01;42.91;41.05;24.82
82823;PMS5003;72575;46.834;-71.234;2024-02-26T05:32:26;51.14;45.76;27.81
82823;PMS5003;72575;46.834;-71.234;2024-02-26T05:34:51;61.8;51.9;29.4
82823;PMS5003;72575;46.834;-71.234;2024-02-26T05:37:17;67.4;52.1;30.4
82823;PMS5003;72575;46.834;-71.234;2024-02-26T05:39:43;55.45;48.5;29.7
82823;PMS5003;72575;46.834;-71.234;2024-02-26T05:42:09;67;53.78;30.83
82823;PMS5003;72575;46.834;-71.234;2024-02-26T05:44:35;64.65;53.15;29.6
82823;PMS5003;72575;46.834;-71.234;2024-02-26T05:47:02;41.91;38;23.36
82823;PMS5003;72575;46.834;-71.234;2024-02-26T05:49:25;55.63;45.89;26.42
82823;PMS5003;72575;46.834;-71.234;2024-02-26T05:51:51;60.94;49.33;29.89
82823;PMS5003;72575;46.834;-71.234;2024-02-26T05:54:17;54.25;45.6;28.45
82823;PMS5003;72575;46.834;-71.234;2024-02-26T05:56:41;58.11;47.68;28.16
82823;PMS5003;72575;46.834;-71.234;2024-02-26T05:59:08;65.4;52.4;31.65
82823;PMS5003;72575;46.834;-71.234;2024-02-26T06:01:32;61.33;50.11;29.44
82823;PMS5003;72575;46.834;-71.234;2024-02-26T06:03:59;52.95;45.75;26.05
82823;PMS5003;72575;46.834;-71.234;2024-02-26T06:06:23;58.43;47.48;28
82823;PMS5003;72575;46.834;-71.234;2024-02-26T06:08:51;56.4;48.7;28.9
82823;PMS5003;72575;46.834;-71.234;2024-02-26T06:11:14;53.38;45.14;28.52
82823;PMS5003;72575;46.834;-71.234;2024-02-26T06:13:39;51.9;44.2;26.5
82823;PMS5003;72575;46.834;-71.234;2024-02-26T06:16:07;43.71;41.67;26.86
82823;PMS5003;72575;46.834;-71.234;2024-02-26T06:18:30;47.2;42.8;27.75
82823;PMS5003;72575;46.834;-71.234;2024-02-26T06:20:56;55;46.3;28.2
82823;PMS5003;72575;46.834;-71.234;2024-02-26T06:23:22;57.95;49;27.74
82823;PMS5003;72575;46.834;-71.234;2024-02-26T06:25:47;43.43;41.71;26.33
82823;PMS5003;72575;46.834;-71.234;2024-02-26T06:28:14;52.43;44.38;26.52
82823;PMS5003;72575;46.834;-71.234;2024-02-26T06:30:36;47.15;43.7;26.95
82823;PMS5003;72575;46.834;-71.234;2024-02-26T06:33:05;54.58;47.21;27.63
82823;PMS5003;72575;46.834;-71.234;2024-02-26T06:35:29;55.15;46.45;27.75
82823;PMS5003;72575;46.834;-71.234;2024-02-26T06:37:56;60.57;48.05;29.29
82823;PMS5003;72575;46.834;-71.234;2024-02-26T06:40:18;52.95;44.52;27
82823;PMS5003;72575;46.834;-71.234;2024-02-26T06:42:44;53.9;45.75;27.05
82823;PMS5003;72575;46.834;-71.234;2024-02-26T06:45:10;50.19;43.71;25.67
82823;PMS5003;72575;46.834;-71.234;2024-02-26T06:47:35;50.05;44.85;23.85
82823;PMS5003;72575;46.834;-71.234;2024-02-26T06:50:02;49.89;41.21;26.21
82823;PMS5003;72575;46.834;-71.234;2024-02-26T06:52:25;46.71;41.81;27.57
82823;PMS5003;72575;46.834;-71.234;2024-02-26T06:54:51;53.15;47.5;26.9
82823;PMS5003;72575;46.834;-71.234;2024-02-26T06:57:17;49.55;44.25;26.75
82823;PMS5003;72575;46.834;-71.234;2024-02-26T06:59:43;42;37.55;23.8
82823;PMS5003;72575;46.834;-71.234;2024-02-26T07:02:08;53.16;45.84;27.05
82823;PMS5003;72575;46.834;-71.234;2024-02-26T07:04:34;53.65;45.15;28.85
82823;PMS5003;72575;46.834;-71.234;2024-02-26T07:06:59;44.74;42.11;26.58
82823;PMS5003;72575;46.834;-71.234;2024-02-26T07:09:23;46.43;41.62;22.24
82823;PMS5003;72575;46.834;-71.234;2024-02-26T07:11:49;57.8;48.4;29.75
82823;PMS5003;72575;46.834;-71.234;2024-02-26T07:14:16;53.8;45.6;27.05
82823;PMS5003;72575;46.834;-71.234;2024-02-26T07:16:40;55.4;46.45;27.65
82823;PMS5003;72575;46.834;-71.234;2024-02-26T07:19:06;41.95;38.47;24.53
82823;PMS5003;72575;46.834;-71.234;2024-02-26T07:21:31;43;36.45;22.35
82823;PMS5003;72575;46.834;-71.234;2024-02-26T07:23:55;50.47;44.53;27.89
82823;PMS5003;72575;46.834;-71.234;2024-02-26T07:26:24;50.55;45.1;27.05
82823;PMS5003;72575;46.834;-71.234;2024-02-26T07:28:48;58.71;46.29;24.95
82823;PMS5003;72575;46.834;-71.234;2024-02-26T07:31:14;43.6;41.55;24.25
82823;PMS5003;72575;46.834;-71.234;2024-02-26T07:33:39;42.29;36.1;23.95
82823;PMS5003;72575;46.834;-71.234;2024-02-26T07:36:03;40.48;38.48;24.48
82823;PMS5003;72575;46.834;-71.234;2024-02-26T07:38:28;43.81;40.14;24.86
82823;PMS5003;72575;46.834;-71.234;2024-02-26T07:40:53;46.81;41.24;24.29
82823;PMS5003;72575;46.834;-71.234;2024-02-26T07:43:18;42.9;40.81;27.1
82823;PMS5003;72575;46.834;-71.234;2024-02-26T07:45:47;46.81;43.29;24.9
82823;PMS5003;72575;46.834;-71.234;2024-02-26T07:48:10;34;32.55;19.2
82823;PMS5003;72575;46.834;-71.234;2024-02-26T07:50:37;33.1;30.6;18
82823;PMS5003;72575;46.834;-71.234;2024-02-26T07:53:01;36.29;33.14;21.81
82823;PMS5003;72575;46.834;-71.234;2024-02-26T07:55:26;38.57;30.67;20
82823;PMS5003;72575;46.834;-71.234;2024-02-26T07:57:52;40.11;36.89;21.42
82823;PMS5003;72575;46.834;-71.234;2024-02-26T08:00:19;25.33;24.81;15.19
82823;PMS5003;72575;46.834;-71.234;2024-02-26T08:02:42;39.15;35.45;20.3
82823;PMS5003;72575;46.834;-71.234;2024-02-26T08:05:09;39.15;35.65;20.95
82823;PMS5003;72575;46.834;-71.234;2024-02-26T08:07:34;36.21;34.68;22.26
82823;PMS5003;72575;46.834;-71.234;2024-02-26T08:09:59;49.95;44.05;26.1
82823;PMS5003;72575;46.834;-71.234;2024-02-26T08:12:24;38.48;35;21.95
82823;PMS5003;72575;46.834;-71.234;2024-02-26T08:14:51;36.05;32.38;19.48
82823;PMS5003;72575;46.834;-71.234;2024-02-26T08:17:16;36;34.76;22.33
82823;PMS5003;72575;46.834;-71.234;2024-02-26T08:19:42;42.38;37.52;19.86
82823;PMS5003;72575;46.834;-71.234;2024-02-26T08:22:10;34.95;33.05;18.63
82823;PMS5003;72575;46.834;-71.234;2024-02-26T08:24:32;27.5;26.1;16.95
82823;PMS5003;72575;46.834;-71.234;2024-02-26T08:26:58;40.3;34.55;18.45
82823;PMS5003;72575;46.834;-71.234;2024-02-26T08:29:22;29.55;28.05;16.9
82823;PMS5003;72575;46.834;-71.234;2024-02-26T08:31:48;34.4;31.75;16.35
82823;PMS5003;72575;46.834;-71.234;2024-02-26T08:34:25;31.91;31.91;18
82823;PMS5003;72575;46.834;-71.234;2024-02-26T08:36:51;34.43;33.95;16.67
82823;PMS5003;72575;46.834;-71.234;2024-02-26T08:39:18;38.4;35.25;20.6
82823;PMS5003;72575;46.834;-71.234;2024-02-26T08:41:40;33.79;30.68;18.32
82823;PMS5003;72575;46.834;-71.234;2024-02-26T08:44:08;37.21;29.79;18.21
82823;PMS5003;72575;46.834;-71.234;2024-02-26T08:46:31;37.58;36.47;18.89
82823;PMS5003;72575;46.834;-71.234;2024-02-26T08:48:57;39.05;35.95;19.6
82823;PMS5003;72575;46.834;-71.234;2024-02-26T08:51:23;42.29;38.95;19.29
82823;PMS5003;72575;46.834;-71.234;2024-02-26T08:53:50;26.19;24.24;14.86
82823;PMS5003;72575;46.834;-71.234;2024-02-26T08:56:17;32.85;30.95;17.8
82823;PMS5003;72575;46.834;-71.234;2024-02-26T08:58:38;24.37;23.79;15.68
82823;PMS5003;72575;46.834;-71.234;2024-02-26T09:22:55;40.84;38.47;20.16
82823;PMS5003;72575;46.834;-71.234;2024-02-26T09:23:09;44.81;40.14;19.24
82823;PMS5003;72575;46.834;-71.234;2024-02-26T09:23:27;40.14;36.86;22.1
82823;PMS5003;72575;46.834;-71.234;2024-02-26T09:23:43;31.48;28.14;17.95
82823;PMS5003;72575;46.834;-71.234;2024-02-26T09:23:55;37.52;33.19;18.71
82823;PMS5003;72575;46.834;-71.234;2024-02-26T09:24:08;38.86;30.77;18.32
82823;PMS5003;72575;46.834;-71.234;2024-02-26T09:24:19;37.1;33.43;18.48
82823;PMS5003;72575;46.834;-71.234;2024-02-26T09:24:32;28.76;23.48;15.1
82823;PMS5003;72575;46.834;-71.234;2024-02-26T09:24:40;32.73;29.59;18.64
82823;PMS5003;72575;46.834;-71.234;2024-02-26T09:25:54;36.1;33.05;20.43
82823;PMS5003;72575;46.834;-71.234;2024-02-26T09:28:17;28.33;26.38;16.14
82823;PMS5003;72575;46.834;-71.234;2024-02-26T09:30:44;29.3;29.05;18.35
82823;PMS5003;72575;46.834;-71.234;2024-02-26T09:33:08;29.26;27.79;14.11
82823;PMS5003;72575;46.834;-71.234;2024-02-26T09:35:34;27.61;26.5;16.94
82823;PMS5003;72575;46.834;-71.234;2024-02-26T09:37:58;38.37;36.74;19.26
82823;PMS5003;72575;46.834;-71.234;2024-02-26T09:40:23;28.62;25.71;14.9
82823;PMS5003;72575;46.834;-71.234;2024-02-26T09:42:56;27.21;25.95;17.16
82823;PMS5003;72575;46.834;-71.234;2024-02-26T09:45:19;27.94;26.89;15.5
82823;PMS5003;72575;46.834;-71.234;2024-02-26T09:47:40;24.84;22.47;14.63
82823;PMS5003;72575;46.834;-71.234;2024-02-26T09:50:12;27.37;27.16;14.74
82823;PMS5003;72575;46.834;-71.234;2024-02-26T09:52:34;21.72;19.22;14.28
82823;PMS5003;72575;46.834;-71.234;2024-02-26T09:54:58;24.55;24;14.45
82823;PMS5003;72575;46.834;-71.234;2024-02-26T09:57:25;32;29.5;14.15
82823;PMS5003;72575;46.834;-71.234;2024-02-26T09:59:48;33.62;30.67;14.48
82823;PMS5003;72575;46.834;-71.234;2024-02-26T10:02:14;30.53;24.79;13.42
82823;PMS5003;72575;46.834;-71.234;2024-02-26T10:04:41;21.95;21.84;13.74
82823;PMS5003;72575;46.834;-71.234;2024-02-26T10:07:05;23.89;20.39;14.44
82823;PMS5003;72575;46.834;-71.234;2024-02-26T10:09:31;22.44;21.28;12.83
82823;PMS5003;72575;46.834;-71.234;2024-02-26T10:11:55;22.72;19.11;11.78
82823;PMS5003;72575;46.834;-71.234;2024-02-26T10:14:21;22.94;21.33;12.83
82823;PMS5003;72575;46.834;-71.234;2024-02-26T10:16:45;21.42;19.74;11.68
82823;PMS5003;72575;46.834;-71.234;2024-02-26T10:19:25;20.22;19.5;11.94
82823;PMS5003;72575;46.834;-71.234;2024-02-26T10:21:37;24.06;22.61;13.11
82823;PMS5003;72575;46.834;-71.234;2024-02-26T10:24:00;17.11;15.83;10.94
82823;PMS5003;72575;46.834;-71.234;2024-02-26T10:26:29;19.22;18.44;11.28
82823;PMS5003;72575;46.834;-71.234;2024-02-26T10:28:52;24.67;23;12.78
82823;PMS5003;72575;46.834;-71.234;2024-02-26T10:31:18;20.44;17.72;8.78
82823;PMS5003;72575;46.834;-71.234;2024-02-26T10:33:43;25.89;24.05;12.16
82823;PMS5003;72575;46.834;-71.234;2024-02-26T10:36:09;18.67;18.44;11.89
82823;PMS5003;72575;46.834;-71.234;2024-02-26T10:38:36;19.67;18.44;11.78
82823;PMS5003;72575;46.834;-71.234;2024-02-26T10:40:59;19.11;19.11;11.72
82823;PMS5003;72575;46.834;-71.234;2024-02-26T10:43:26;20;19.17;9.94
82823;PMS5003;72575;46.834;-71.234;2024-02-26T10:45:51;13.94;13;11.28
82823;PMS5003;72575;46.834;-71.234;2024-02-26T10:48:15;19.61;18.17;11.78
82823;PMS5003;72575;46.834;-71.234;2024-02-26T10:50:43;22.21;19.74;11.05
82823;PMS5003;72575;46.834;-71.234;2024-02-26T10:53:07;21.61;19.5;10.44
82823;PMS5003;72575;46.834;-71.234;2024-02-26T10:55:35;23.32;22.84;12.21
82823;PMS5003;72575;46.834;-71.234;2024-02-26T10:57:57;17.61;17.17;10.28
82823;PMS5003;72575;46.834;-71.234;2024-02-26T11:00:25;23.33;21.44;11.28
82823;PMS5003;72575;46.834;-71.234;2024-02-26T11:02:50;19.83;19.33;11.39
82823;PMS5003;72575;46.834;-71.234;2024-02-26T11:05:13;25.06;21.83;14.67
82823;PMS5003;72575;46.834;-71.234;2024-02-26T11:07:41;19.95;18.53;11.47
82823;PMS5003;72575;46.834;-71.234;2024-02-26T11:10:07;20.83;19;13.5
82823;PMS5003;72575;46.834;-71.234;2024-02-26T11:12:32;21.94;20.83;12.72
82823;PMS5003;72575;46.834;-71.234;2024-02-26T11:14:58;28.25;27.3;12.5
82823;PMS5003;72575;46.834;-71.234;2024-02-26T11:17:21;20.61;17.72;12.94
82823;PMS5003;72575;46.834;-71.234;2024-02-26T11:19:47;18;17.11;9.11
82823;PMS5003;72575;46.834;-71.234;2024-02-26T11:22:10;24.85;23.9;12.85
82823;PMS5003;72575;46.834;-71.234;2024-02-26T11:24:41;23.19;23.1;11.76
82823;PMS5003;72575;46.834;-71.234;2024-02-26T11:27:04;26.22;23;13.11
82823;PMS5003;72575;46.834;-71.234;2024-02-26T11:29:35;19.22;18.94;12.39
82823;PMS5003;72575;46.834;-71.234;2024-02-26T11:31:55;18.22;16.56;11.22
82823;PMS5003;72575;46.834;-71.234;2024-02-26T11:34:19;23.72;21.78;11.56
82823;PMS5003;72575;46.834;-71.234;2024-02-26T11:36:43;16.28;15.44;11.5
82823;PMS5003;72575;46.834;-71.234;2024-02-26T11:39:10;26.35;22.45;11.25
82823;PMS5003;72575;46.834;-71.234;2024-02-26T11:41:37;20.32;19.05;11.11
82823;PMS5003;72575;46.834;-71.234;2024-02-26T11:44:02;19.67;19.22;12.5
82823;PMS5003;72575;46.834;-71.234;2024-02-26T11:46:32;22.45;20.3;12.55
82823;PMS5003;72575;46.834;-71.234;2024-02-26T11:48:54;28.15;25.9;12.85
82823;PMS5003;72575;46.834;-71.234;2024-02-26T11:51:15;23.9;21.15;11.2
82823;PMS5003;72575;46.834;-71.234;2024-02-26T11:53:49;25.39;21;13.67
82823;PMS5003;72575;46.834;-71.234;2024-02-26T11:56:40;20.33;18.11;12.22
82823;PMS5003;72575;46.834;-71.234;2024-02-26T11:58:33;20.26;18.63;11.37
82823;PMS5003;72575;46.834;-71.234;2024-02-26T12:00:59;20.84;19.95;12.26
82823;PMS5003;72575;46.834;-71.234;2024-02-26T12:03:24;22.39;22.06;14.56
82823;PMS5003;72575;46.834;-71.234;2024-02-26T12:05:50;25.89;24.78;16.67
82823;PMS5003;72575;46.834;-71.234;2024-02-26T12:08:17;29.67;27.33;17.67
82823;PMS5003;72575;46.834;-71.234;2024-02-26T12:10:40;23.05;21.9;14.7
82823;PMS5003;72575;46.834;-71.234;2024-02-26T12:13:08;25.06;24.06;16.22
82823;PMS5003;72575;46.834;-71.234;2024-02-26T12:15:36;30.11;28.89;19
82823;PMS5003;72575;46.834;-71.234;2024-02-26T12:17:58;30.78;29.89;17.5
82823;PMS5003;72575;46.834;-71.234;2024-02-26T12:20:24;33.5;32.1;18.4
82823;PMS5003;72575;46.834;-71.234;2024-02-26T12:22:46;24.5;23.67;14.17
82823;PMS5003;72575;46.834;-71.234;2024-02-26T12:25:13;28.83;26.61;16.33
82823;PMS5003;72575;46.834;-71.234;2024-02-26T12:27:38;36.35;35.45;19.4
82823;PMS5003;72575;46.834;-71.234;2024-02-26T12:30:05;34.39;31;18.89
82823;PMS5003;72575;46.834;-71.234;2024-02-26T12:32:31;34.58;31.84;19.63
82823;PMS5003;72575;46.834;-71.234;2024-02-26T12:34:53;38;36;17.75
82823;PMS5003;72575;46.834;-71.234;2024-02-26T12:37:19;33.8;31.75;16.5
82823;PMS5003;72575;46.834;-71.234;2024-02-26T12:39:46;26.11;24.44;14.78
82823;PMS5003;72575;46.834;-71.234;2024-02-26T12:42:12;32.58;31.16;15.79
82823;PMS5003;72575;46.834;-71.234;2024-02-26T12:44:35;29.17;27.33;16.17
82823;PMS5003;72575;46.834;-71.234;2024-02-26T12:47:00;23.28;23.22;14.78
82823;PMS5003;72575;46.834;-71.234;2024-02-26T12:49:26;28;25.74;16.74
82823;PMS5003;72575;46.834;-71.234;2024-02-26T12:51:52;35.06;28.56;17.28
82823;PMS5003;72575;46.834;-71.234;2024-02-26T12:54:17;32.89;28.17;18.61
82823;PMS5003;72575;46.834;-71.234;2024-02-26T12:56:44;38.15;36.25;17
82823;PMS5003;72575;46.834;-71.234;2024-02-26T12:59:08;29.21;28.53;15.68
82823;PMS5003;72575;46.834;-71.234;2024-02-26T13:01:34;24.72;22.28;12.22
82823;PMS5003;72575;46.834;-71.234;2024-02-26T13:04:01;22.61;20.56;12.5
82823;PMS5003;72575;46.834;-71.234;2024-02-26T13:06:26;36.05;32.24;17.48
82823;PMS5003;72575;46.834;-71.234;2024-02-26T13:08:56;32.56;27.11;15.06
82823;PMS5003;72575;46.834;-71.234;2024-02-26T13:11:17;28.05;24.58;14.21
82823;PMS5003;72575;46.834;-71.234;2024-02-26T13:13:42;33.5;32.05;18.9
82823;PMS5003;72575;46.834;-71.234;2024-02-26T13:16:14;30.61;29.17;16.67
82823;PMS5003;72575;46.834;-71.234;2024-02-26T13:18:32;32.25;30.75;14.35
82823;PMS5003;72575;46.834;-71.234;2024-02-26T13:21:08;26.33;23.06;14.39
82823;PMS5003;72575;46.834;-71.234;2024-02-26T13:23:23;23.47;22.05;13.89
82823;PMS5003;72575;46.834;-71.234;2024-02-26T13:25:49;26.44;26.44;17.28